sensor_id;sensor_type;location;lat;lon;timestamp;pressure;altitude;pressure_sealevel;temperature;humidity
63097;BME280;49185;42.320;23.198;2023-02-20T00:00:36;95241.44;;;7.95;59.93
63097;BME280;49185;42.320;23.198;2023-02-20T00:03:02;95246.84;;;7.88;60.30
63097;BME280;49185;42.320;23.198;2023-02-20T00:05:27;95245.72;;;7.77;60.90
63097;BME280;49185;42.320;23.198;2023-02-20T00:07:53;95235.44;;;8.06;59.77
63097;BME280;49185;42.320;23.198;2023-02-20T00:10:18;95243.09;;;8.33;59.28
63097;BME280;49185;42.320;23.198;2023-02-20T00:12:44;95236.09;;;8.39;59.48
63097;BME280;49185;42.320;23.198;2023-02-20T00:15:13;95235.94;;;8.33;59.20
63097;BME280;49185;42.320;23.198;2023-02-20T00:17:38;95236.25;;;8.25;59.85
63097;BME280;49185;42.320;23.198;2023-02-20T00:20:04;95247.28;;;8.41;59.35
63097;BME280;49185;42.320;23.198;2023-02-20T00:22:30;95252.56;;;8.66;58.65
63097;BME280;49185;42.320;23.198;2023-02-20T00:24:55;95254.00;;;8.25;59.33
63097;BME280;49185;42.320;23.198;2023-02-20T00:27:20;95260.69;;;8.09;59.97
63097;BME280;49185;42.320;23.198;2023-02-20T00:29:46;95252.81;;;8.21;60.06
63097;BME280;49185;42.320;23.198;2023-02-20T00:32:12;95267.47;;;8.42;59.01
63097;BME280;49185;42.320;23.198;2023-02-20T00:34:37;95271.38;;;9.06;57.03
63097;BME280;49185;42.320;23.198;2023-02-20T00:37:03;95268.78;;;8.88;57.50
63097;BME280;49185;42.320;23.198;2023-02-20T00:39:30;95268.81;;;7.89;60.85
63097;BME280;49185;42.320;23.198;2023-02-20T00:41:55;95265.44;;;7.82;60.73
63097;BME280;49185;42.320;23.198;2023-02-20T00:44:21;95262.25;;;7.48;61.99
63097;BME280;49185;42.320;23.198;2023-02-20T00:46:46;95263.81;;;6.98;64.05
63097;BME280;49185;42.320;23.198;2023-02-20T00:49:12;95261.31;;;6.72;65.22
63097;BME280;49185;42.320;23.198;2023-02-20T00:51:38;95261.44;;;6.83;64.41
63097;BME280;49185;42.320;23.198;2023-02-20T00:54:04;95257.94;;;6.90;64.11
63097;BME280;49185;42.320;23.198;2023-02-20T00:56:30;95258.31;;;7.57;62.38
63097;BME280;49185;42.320;23.198;2023-02-20T00:58:56;95264.00;;;6.97;63.96
63097;BME280;49185;42.320;23.198;2023-02-20T01:01:21;95268.63;;;6.70;64.51
63097;BME280;49185;42.320;23.198;2023-02-20T01:03:47;95268.16;;;6.34;66.10
63097;BME280;49185;42.320;23.198;2023-02-20T01:06:12;95257.22;;;6.17;67.00
63097;BME280;49185;42.320;23.198;2023-02-20T01:08:38;95242.03;;;5.86;67.88
63097;BME280;49185;42.320;23.198;2023-02-20T01:11:04;95241.44;;;5.57;69.10
63097;BME280;49185;42.320;23.198;2023-02-20T01:13:29;95250.59;;;5.28;70.32
63097;BME280;49185;42.320;23.198;2023-02-20T01:15:55;95243.06;;;5.18;71.03
63097;BME280;49185;42.320;23.198;2023-02-20T01:18:20;95234.56;;;5.23;70.52
63097;BME280;49185;42.320;23.198;2023-02-20T01:20:46;95226.59;;;5.96;68.14
63097;BME280;49185;42.320;23.198;2023-02-20T01:23:12;95241.75;;;6.34;66.34
63097;BME280;49185;42.320;23.198;2023-02-20T01:25:37;95242.94;;;6.32;66.05
63097;BME280;49185;42.320;23.198;2023-02-20T01:28:03;95250.13;;;5.91;67.39
63097;BME280;49185;42.320;23.198;2023-02-20T01:30:28;95265.56;;;5.94;67.33
63097;BME280;49185;42.320;23.198;2023-02-20T01:32:53;95266.84;;;5.65;68.17
63097;BME280;49185;42.320;23.198;2023-02-20T01:35:19;95276.78;;;5.23;69.52
63097;BME280;49185;42.320;23.198;2023-02-20T01:37:44;95272.06;;;5.11;70.48
63097;BME280;49185;42.320;23.198;2023-02-20T01:40:16;95280.03;;;5.58;68.50
63097;BME280;49185;42.320;23.198;2023-02-20T01:42:42;95270.47;;;6.04;66.61
63097;BME280;49185;42.320;23.198;2023-02-20T01:47:42;95286.53;;;5.69;67.53
63097;BME280;49185;42.320;23.198;2023-02-20T01:50:08;95291.19;;;5.33;68.53
63097;BME280;49185;42.320;23.198;2023-02-20T01:52:35;95295.78;;;4.91;70.20
63097;BME280;49185;42.320;23.198;2023-02-20T01:57:32;95291.88;;;4.26;74.21
63097;BME280;49185;42.320;23.198;2023-02-20T02:00:05;95290.16;;;4.46;73.71
63097;BME280;49185;42.320;23.198;2023-02-20T02:02:34;95290.38;;;4.58;72.81
63097;BME280;49185;42.320;23.198;2023-02-20T02:05:02;95282.91;;;4.62;73.21
63097;BME280;49185;42.320;23.198;2023-02-20T02:07:28;95284.09;;;4.52;73.48
63097;BME280;49185;42.320;23.198;2023-02-20T02:10:07;95284.75;;;4.68;73.28
63097;BME280;49185;42.320;23.198;2023-02-20T02:12:34;95286.25;;;4.97;72.82
63097;BME280;49185;42.320;23.198;2023-02-20T02:15:00;95276.56;;;5.38;71.13
63097;BME280;49185;42.320;23.198;2023-02-20T02:17:33;95286.94;;;5.53;70.65
63097;BME280;49185;42.320;23.198;2023-02-20T02:37:06;95355.56;;;6.19;73.25
63097;BME280;49185;42.320;23.198;2023-02-20T02:39:57;95347.63;;;6.39;74.44
63097;BME280;49185;42.320;23.198;2023-02-20T02:48:51;95385.19;;;6.61;76.24
63097;BME280;49185;42.320;23.198;2023-02-20T02:51:16;95382.59;;;6.28;78.19
63097;BME280;49185;42.320;23.198;2023-02-20T02:54:14;95384.59;;;5.86;81.64
63097;BME280;49185;42.320;23.198;2023-02-20T02:56:42;95389.28;;;5.64;83.85
63097;BME280;49185;42.320;23.198;2023-02-20T02:59:13;95387.44;;;5.51;85.14
63097;BME280;49185;42.320;23.198;2023-02-20T03:01:42;95366.50;;;5.49;85.91
63097;BME280;49185;42.320;23.198;2023-02-20T03:04:12;95384.34;;;5.41;85.95
63097;BME280;49185;42.320;23.198;2023-02-20T03:06:42;95386.00;;;5.55;85.26
63097;BME280;49185;42.320;23.198;2023-02-20T03:09:16;95379.53;;;5.71;83.90
63097;BME280;49185;42.320;23.198;2023-02-20T03:11:44;95388.47;;;5.63;84.64
63097;BME280;49185;42.320;23.198;2023-02-20T03:14:20;95391.31;;;5.68;84.62
63097;BME280;49185;42.320;23.198;2023-02-20T03:17:10;95396.78;;;5.60;85.29
63097;BME280;49185;42.320;23.198;2023-02-20T03:19:46;95412.03;;;5.78;83.96
63097;BME280;49185;42.320;23.198;2023-02-20T03:22:25;95415.31;;;6.07;82.71
63097;BME280;49185;42.320;23.198;2023-02-20T03:24:56;95412.06;;;6.25;81.21
63097;BME280;49185;42.320;23.198;2023-02-20T03:27:29;95413.72;;;6.06;82.53
63097;BME280;49185;42.320;23.198;2023-02-20T03:29:58;95417.69;;;5.62;84.22
63097;BME280;49185;42.320;23.198;2023-02-20T03:32:26;95410.75;;;5.41;85.33
63097;BME280;49185;42.320;23.198;2023-02-20T03:34:56;95418.91;;;5.66;83.92
63097;BME280;49185;42.320;23.198;2023-02-20T03:37:24;95418.47;;;5.56;85.10
63097;BME280;49185;42.320;23.198;2023-02-20T03:39:56;95411.97;;;5.45;84.56
63097;BME280;49185;42.320;23.198;2023-02-20T03:42:24;95408.97;;;5.55;84.37
63097;BME280;49185;42.320;23.198;2023-02-20T03:44:50;95397.56;;;5.54;84.17
63097;BME280;49185;42.320;23.198;2023-02-20T03:47:18;95398.19;;;5.56;84.34
63097;BME280;49185;42.320;23.198;2023-02-20T03:49:48;95393.94;;;5.62;84.07
63097;BME280;49185;42.320;23.198;2023-02-20T03:52:16;95404.31;;;5.77;82.82
63097;BME280;49185;42.320;23.198;2023-02-20T03:54:42;95407.22;;;6.22;79.73
63097;BME280;49185;42.320;23.198;2023-02-20T03:57:14;95412.91;;;6.25;80.23
63097;BME280;49185;42.320;23.198;2023-02-20T03:59:49;95407.59;;;6.05;80.52
63097;BME280;49185;42.320;23.198;2023-02-20T04:02:22;95422.00;;;6.56;77.86
63097;BME280;49185;42.320;23.198;2023-02-20T04:04:51;95422.44;;;6.33;79.17
63097;BME280;49185;42.320;23.198;2023-02-20T04:07:23;95422.44;;;6.00;80.03
63097;BME280;49185;42.320;23.198;2023-02-20T04:09:51;95422.53;;;5.45;83.09
63097;BME280;49185;42.320;23.198;2023-02-20T04:12:21;95425.34;;;5.37;83.52
63097;BME280;49185;42.320;23.198;2023-02-20T04:14:50;95433.91;;;5.52;82.49
63097;BME280;49185;42.320;23.198;2023-02-20T04:17:21;95435.09;;;5.43;83.05
63097;BME280;49185;42.320;23.198;2023-02-20T04:19:48;95437.63;;;5.91;81.76
63097;BME280;49185;42.320;23.198;2023-02-20T04:22:22;95432.63;;;5.35;82.55
63097;BME280;49185;42.320;23.198;2023-02-20T04:24:51;95436.44;;;5.94;77.60
63097;BME280;49185;42.320;23.198;2023-02-20T04:27:18;95445.09;;;5.61;79.99
63097;BME280;49185;42.320;23.198;2023-02-20T04:29:44;95436.66;;;5.24;81.33
63097;BME280;49185;42.320;23.198;2023-02-20T04:32:09;95436.50;;;4.84;83.45
63097;BME280;49185;42.320;23.198;2023-02-20T04:34:35;95431.84;;;5.41;81.60
63097;BME280;49185;42.320;23.198;2023-02-20T04:37:07;95447.44;;;5.29;81.00
63097;BME280;49185;42.320;23.198;2023-02-20T04:39:33;95442.66;;;5.53;79.27
63097;BME280;49185;42.320;23.198;2023-02-20T04:41:58;95442.56;;;5.26;79.90
63097;BME280;49185;42.320;23.198;2023-02-20T04:44:23;95440.44;;;5.01;81.23
63097;BME280;49185;42.320;23.198;2023-02-20T04:46:49;95446.72;;;4.65;82.77
63097;BME280;49185;42.320;23.198;2023-02-20T04:49:14;95447.50;;;5.01;82.10
63097;BME280;49185;42.320;23.198;2023-02-20T04:51:40;95454.06;;;4.70;82.68
63097;BME280;49185;42.320;23.198;2023-02-20T04:54:05;95449.06;;;4.88;81.61
63097;BME280;49185;42.320;23.198;2023-02-20T04:56:30;95455.00;;;5.39;79.99
63097;BME280;49185;42.320;23.198;2023-02-20T04:58:56;95462.53;;;5.00;81.16
63097;BME280;49185;42.320;23.198;2023-02-20T05:01:21;95468.06;;;5.12;80.89
63097;BME280;49185;42.320;23.198;2023-02-20T05:03:47;95477.66;;;4.85;81.72
63097;BME280;49185;42.320;23.198;2023-02-20T05:06:12;95482.94;;;5.26;79.76
63097;BME280;49185;42.320;23.198;2023-02-20T05:08:38;95482.06;;;5.12;80.13
63097;BME280;49185;42.320;23.198;2023-02-20T05:11:03;95490.59;;;5.14;80.24
63097;BME280;49185;42.320;23.198;2023-02-20T05:13:29;95482.84;;;5.06;81.61
63097;BME280;49185;42.320;23.198;2023-02-20T05:15:54;95489.94;;;4.71;83.14
63097;BME280;49185;42.320;23.198;2023-02-20T05:18:24;95493.38;;;5.00;82.68
63097;BME280;49185;42.320;23.198;2023-02-20T05:20:50;95503.91;;;5.00;81.83
63097;BME280;49185;42.320;23.198;2023-02-20T05:23:15;95508.53;;;5.32;80.88
63097;BME280;49185;42.320;23.198;2023-02-20T05:25:40;95515.38;;;5.20;81.25
63097;BME280;49185;42.320;23.198;2023-02-20T05:28:06;95523.94;;;5.70;78.21
63097;BME280;49185;42.320;23.198;2023-02-20T05:30:31;95524.78;;;5.91;74.81
63097;BME280;49185;42.320;23.198;2023-02-20T05:32:57;95528.94;;;6.14;71.37
63097;BME280;49185;42.320;23.198;2023-02-20T05:35:22;95533.59;;;6.05;73.54
63097;BME280;49185;42.320;23.198;2023-02-20T05:37:47;95542.50;;;5.97;74.05
63097;BME280;49185;42.320;23.198;2023-02-20T05:40:13;95540.97;;;6.36;71.83
63097;BME280;49185;42.320;23.198;2023-02-20T05:42:40;95547.16;;;5.95;74.94
63097;BME280;49185;42.320;23.198;2023-02-20T05:45:05;95544.84;;;5.79;74.95
63097;BME280;49185;42.320;23.198;2023-02-20T05:47:31;95540.34;;;6.34;73.89
63097;BME280;49185;42.320;23.198;2023-02-20T05:49:56;95551.75;;;6.41;72.35
63097;BME280;49185;42.320;23.198;2023-02-20T05:52:22;95556.81;;;6.56;72.77
63097;BME280;49185;42.320;23.198;2023-02-20T05:54:47;95554.19;;;6.50;73.99
63097;BME280;49185;42.320;23.198;2023-02-20T05:57:13;95552.28;;;6.03;75.14
63097;BME280;49185;42.320;23.198;2023-02-20T05:59:39;95554.13;;;6.23;75.20
63097;BME280;49185;42.320;23.198;2023-02-20T06:02:05;95566.97;;;7.19;70.63
63097;BME280;49185;42.320;23.198;2023-02-20T06:04:30;95581.84;;;7.00;71.83
63097;BME280;49185;42.320;23.198;2023-02-20T06:06:56;95576.69;;;6.12;76.19
63097;BME280;49185;42.320;23.198;2023-02-20T06:09:21;95567.78;;;6.20;75.28
63097;BME280;49185;42.320;23.198;2023-02-20T06:11:52;95581.16;;;6.25;74.46
63097;BME280;49185;42.320;23.198;2023-02-20T06:14:19;95595.47;;;7.04;72.48
63097;BME280;49185;42.320;23.198;2023-02-20T06:16:45;95605.34;;;6.15;76.40
63097;BME280;49185;42.320;23.198;2023-02-20T06:19:17;95598.41;;;6.01;77.83
63097;BME280;49185;42.320;23.198;2023-02-20T06:21:45;95602.31;;;6.18;76.91
63097;BME280;49185;42.320;23.198;2023-02-20T06:24:11;95591.81;;;6.65;75.61
63097;BME280;49185;42.320;23.198;2023-02-20T06:26:40;95590.19;;;7.11;73.35
63097;BME280;49185;42.320;23.198;2023-02-20T06:29:06;95604.59;;;8.07;69.25
63097;BME280;49185;42.320;23.198;2023-02-20T06:31:31;95592.28;;;9.15;65.93
63097;BME280;49185;42.320;23.198;2023-02-20T06:33:57;95602.00;;;10.38;60.97
63097;BME280;49185;42.320;23.198;2023-02-20T06:36:26;95607.03;;;10.10;61.42
63097;BME280;49185;42.320;23.198;2023-02-20T06:38:52;95591.53;;;11.21;58.45
63097;BME280;49185;42.320;23.198;2023-02-20T06:41:18;95582.59;;;12.27;57.55
63097;BME280;49185;42.320;23.198;2023-02-20T06:43:43;95583.34;;;12.10;54.83
63097;BME280;49185;42.320;23.198;2023-02-20T06:55:17;95598.59;;;11.51;53.82
63097;BME280;49185;42.320;23.198;2023-02-20T06:57:44;95607.66;;;11.62;52.83
63097;BME280;49185;42.320;23.198;2023-02-20T07:00:10;95598.25;;;11.59;50.54
63097;BME280;49185;42.320;23.198;2023-02-20T07:02:35;95598.16;;;10.16;53.62
63097;BME280;49185;42.320;23.198;2023-02-20T07:05:01;95586.81;;;10.57;55.07
63097;BME280;49185;42.320;23.198;2023-02-20T07:07:30;95601.06;;;10.44;50.92
63097;BME280;49185;42.320;23.198;2023-02-20T07:09:55;95590.06;;;10.41;49.36
63097;BME280;49185;42.320;23.198;2023-02-20T07:12:21;95588.63;;;11.11;48.84
63097;BME280;49185;42.320;23.198;2023-02-20T07:14:46;95587.91;;;12.27;47.09
63097;BME280;49185;42.320;23.198;2023-02-20T07:17:11;95579.09;;;14.62;41.61
63097;BME280;49185;42.320;23.198;2023-02-20T07:19:37;95584.63;;;15.85;36.09
63097;BME280;49185;42.320;23.198;2023-02-20T07:22:02;95580.97;;;16.06;36.81
63097;BME280;49185;42.320;23.198;2023-02-20T07:24:28;95584.84;;;16.36;35.81
63097;BME280;49185;42.320;23.198;2023-02-20T07:26:53;95588.31;;;15.04;38.71
63097;BME280;49185;42.320;23.198;2023-02-20T07:29:19;95600.72;;;15.47;38.25
63097;BME280;49185;42.320;23.198;2023-02-20T07:31:44;95590.50;;;13.30;40.60
63097;BME280;49185;42.320;23.198;2023-02-20T07:34:10;95592.78;;;12.59;40.95
63097;BME280;49185;42.320;23.198;2023-02-20T07:36:35;95602.09;;;14.14;41.60
63097;BME280;49185;42.320;23.198;2023-02-20T07:39:02;95597.06;;;13.05;40.29
63097;BME280;49185;42.320;23.198;2023-02-20T07:41:30;95609.13;;;11.93;45.09
63097;BME280;49185;42.320;23.198;2023-02-20T07:43:55;95598.72;;;11.09;46.90
63097;BME280;49185;42.320;23.198;2023-02-20T07:46:21;95604.16;;;11.61;47.20
63097;BME280;49185;42.320;23.198;2023-02-20T07:48:47;95604.63;;;11.11;47.21
63097;BME280;49185;42.320;23.198;2023-02-20T07:51:14;95597.00;;;10.72;48.23
63097;BME280;49185;42.320;23.198;2023-02-20T07:53:46;95601.56;;;10.41;48.78
63097;BME280;49185;42.320;23.198;2023-02-20T07:56:12;95610.97;;;11.10;47.34
63097;BME280;49185;42.320;23.198;2023-02-20T07:58:37;95605.66;;;10.68;47.87
63097;BME280;49185;42.320;23.198;2023-02-20T08:01:03;95613.91;;;9.62;50.43
63097;BME280;49185;42.320;23.198;2023-02-20T08:03:28;95613.22;;;10.22;49.60
63097;BME280;49185;42.320;23.198;2023-02-20T08:05:54;95619.81;;;10.38;49.58
63097;BME280;49185;42.320;23.198;2023-02-20T08:08:19;95619.16;;;9.87;48.36
63097;BME280;49185;42.320;23.198;2023-02-20T08:10:44;95614.47;;;9.45;50.36
63097;BME280;49185;42.320;23.198;2023-02-20T08:13:10;95613.13;;;9.36;49.44
63097;BME280;49185;42.320;23.198;2023-02-20T08:15:35;95615.97;;;10.15;48.88
63097;BME280;49185;42.320;23.198;2023-02-20T08:18:01;95629.66;;;11.45;44.18
63097;BME280;49185;42.320;23.198;2023-02-20T08:20:26;95613.19;;;11.25;43.86
63097;BME280;49185;42.320;23.198;2023-02-20T08:22:52;95615.19;;;10.26;45.94
63097;BME280;49185;42.320;23.198;2023-02-20T08:25:17;95619.81;;;10.38;46.86
63097;BME280;49185;42.320;23.198;2023-02-20T08:27:45;95613.63;;;9.88;48.10
63097;BME280;49185;42.320;23.198;2023-02-20T08:30:13;95622.19;;;9.72;49.91
63097;BME280;49185;42.320;23.198;2023-02-20T08:32:39;95622.06;;;10.53;47.57
63097;BME280;49185;42.320;23.198;2023-02-20T08:35:05;95615.22;;;10.99;47.09
63097;BME280;49185;42.320;23.198;2023-02-20T08:37:30;95626.75;;;10.02;48.17
63097;BME280;49185;42.320;23.198;2023-02-20T08:39:56;95629.25;;;9.60;49.01
63097;BME280;49185;42.320;23.198;2023-02-20T08:42:21;95631.06;;;9.41;48.96
63097;BME280;49185;42.320;23.198;2023-02-20T08:44:46;95628.19;;;9.42;50.51
63097;BME280;49185;42.320;23.198;2023-02-20T08:47:12;95631.16;;;10.45;47.49
63097;BME280;49185;42.320;23.198;2023-02-20T08:49:37;95612.47;;;9.41;47.06
63097;BME280;49185;42.320;23.198;2023-02-20T08:52:03;95617.69;;;9.29;48.90
63097;BME280;49185;42.320;23.198;2023-02-20T08:54:29;95611.59;;;10.39;45.14
63097;BME280;49185;42.320;23.198;2023-02-20T08:56:54;95618.41;;;10.17;45.52
63097;BME280;49185;42.320;23.198;2023-02-20T08:59:19;95608.59;;;9.99;44.41
63097;BME280;49185;42.320;23.198;2023-02-20T09:01:45;95609.25;;;9.94;44.71
63097;BME280;49185;42.320;23.198;2023-02-20T09:04:10;95612.50;;;10.33;44.49
63097;BME280;49185;42.320;23.198;2023-02-20T09:06:36;95612.28;;;9.98;44.60
63097;BME280;49185;42.320;23.198;2023-02-20T09:09:02;95617.38;;;10.36;44.27
63097;BME280;49185;42.320;23.198;2023-02-20T09:11:28;95616.38;;;10.49;42.90
63097;BME280;49185;42.320;23.198;2023-02-20T09:13:53;95612.66;;;10.20;42.82
63097;BME280;49185;42.320;23.198;2023-02-20T09:16:21;95610.88;;;10.14;43.77
63097;BME280;49185;42.320;23.198;2023-02-20T09:18:47;95619.06;;;10.12;44.18
63097;BME280;49185;42.320;23.198;2023-02-20T09:21:15;95628.28;;;10.28;43.76
63097;BME280;49185;42.320;23.198;2023-02-20T09:23:41;95624.06;;;10.39;43.09
63097;BME280;49185;42.320;23.198;2023-02-20T09:26:07;95624.78;;;10.46;43.24
63097;BME280;49185;42.320;23.198;2023-02-20T09:28:33;95624.53;;;10.36;43.44
63097;BME280;49185;42.320;23.198;2023-02-20T09:30:58;95614.66;;;10.06;44.20
63097;BME280;49185;42.320;23.198;2023-02-20T09:33:24;95618.88;;;10.62;45.36
63097;BME280;49185;42.320;23.198;2023-02-20T09:35:49;95615.41;;;11.39;40.76
63097;BME280;49185;42.320;23.198;2023-02-20T09:38:14;95619.09;;;11.50;39.61
63097;BME280;49185;42.320;23.198;2023-02-20T09:40:40;95619.22;;;10.66;41.85
63097;BME280;49185;42.320;23.198;2023-02-20T09:46:43;95609.47;;;11.26;42.66
63097;BME280;49185;42.320;23.198;2023-02-20T09:51:26;95621.41;;;11.23;41.30
63097;BME280;49185;42.320;23.198;2023-02-20T09:54:07;95616.09;;;11.58;40.67
63097;BME280;49185;42.320;23.198;2023-02-20T09:56:37;95617.38;;;11.68;38.91
63097;BME280;49185;42.320;23.198;2023-02-20T10:01:42;95625.19;;;12.22;37.68
63097;BME280;49185;42.320;23.198;2023-02-20T10:04:15;95619.53;;;12.47;38.13
63097;BME280;49185;42.320;23.198;2023-02-20T10:06:43;95608.78;;;12.87;37.91
63097;BME280;49185;42.320;23.198;2023-02-20T10:09:12;95588.75;;;12.27;37.35
63097;BME280;49185;42.320;23.198;2023-02-20T10:25:42;95594.97;;;11.81;38.15
63097;BME280;49185;42.320;23.198;2023-02-20T10:28:15;95586.34;;;12.14;38.02
63097;BME280;49185;42.320;23.198;2023-02-20T10:30:54;95544.91;;;12.23;36.31
63097;BME280;49185;42.320;23.198;2023-02-20T10:33:45;95583.78;;;12.48;37.24
63097;BME280;49185;42.320;23.198;2023-02-20T10:36:16;95565.31;;;12.29;36.40
63097;BME280;49185;42.320;23.198;2023-02-20T10:38:51;95571.53;;;12.06;36.21
63097;BME280;49185;42.320;23.198;2023-02-20T10:41:27;95568.88;;;12.35;36.73
63097;BME280;49185;42.320;23.198;2023-02-20T10:51:59;95557.97;;;12.82;34.99
63097;BME280;49185;42.320;23.198;2023-02-20T10:54:32;95557.72;;;12.38;36.25
63097;BME280;49185;42.320;23.198;2023-02-20T10:59:50;95560.78;;;13.26;35.98
63097;BME280;49185;42.320;23.198;2023-02-20T11:02:21;95553.44;;;13.34;34.63
63097;BME280;49185;42.320;23.198;2023-02-20T11:04:52;95541.97;;;13.55;34.81
63097;BME280;49185;42.320;23.198;2023-02-20T11:07:19;95542.81;;;13.22;34.46
63097;BME280;49185;42.320;23.198;2023-02-20T11:09:45;95530.66;;;13.48;35.23
63097;BME280;49185;42.320;23.198;2023-02-20T11:12:35;95520.81;;;13.54;33.89
63097;BME280;49185;42.320;23.198;2023-02-20T11:15:08;95527.53;;;14.00;32.79
63097;BME280;49185;42.320;23.198;2023-02-20T11:17:37;95526.97;;;13.54;33.06
63097;BME280;49185;42.320;23.198;2023-02-20T11:20:04;95525.19;;;13.60;34.19
63097;BME280;49185;42.320;23.198;2023-02-20T11:22:41;95525.44;;;13.58;33.52
63097;BME280;49185;42.320;23.198;2023-02-20T11:25:28;95519.75;;;14.21;31.60
63097;BME280;49185;42.320;23.198;2023-02-20T11:28:00;95521.31;;;14.44;32.84
63097;BME280;49185;42.320;23.198;2023-02-20T11:30:35;95524.72;;;13.29;34.27
63097;BME280;49185;42.320;23.198;2023-02-20T11:35:40;95529.50;;;12.25;34.20
63097;BME280;49185;42.320;23.198;2023-02-20T11:38:22;95528.56;;;12.65;33.69
63097;BME280;49185;42.320;23.198;2023-02-20T11:43:41;95525.81;;;12.94;34.16
63097;BME280;49185;42.320;23.198;2023-02-20T11:46:22;95528.00;;;13.31;34.64
63097;BME280;49185;42.320;23.198;2023-02-20T11:51:41;95523.47;;;12.98;35.11
63097;BME280;49185;42.320;23.198;2023-02-20T11:54:18;95521.69;;;12.52;36.18
63097;BME280;49185;42.320;23.198;2023-02-20T12:04:59;95516.81;;;13.95;32.14
63097;BME280;49185;42.320;23.198;2023-02-20T12:07:33;95515.13;;;14.38;32.15
63097;BME280;49185;42.320;23.198;2023-02-20T12:10:47;95518.25;;;13.42;32.92
63097;BME280;49185;42.320;23.198;2023-02-20T12:12:48;95507.84;;;13.40;32.92
63097;BME280;49185;42.320;23.198;2023-02-20T12:15:15;95505.00;;;13.69;32.93
63097;BME280;49185;42.320;23.198;2023-02-20T12:21:17;95502.41;;;13.01;33.41
63097;BME280;49185;42.320;23.198;2023-02-20T12:23:57;95487.06;;;13.08;33.17
63097;BME280;49185;42.320;23.198;2023-02-20T12:26:39;95479.41;;;13.78;32.41
63097;BME280;49185;42.320;23.198;2023-02-20T12:51:37;95489.50;;;12.59;33.95
63097;BME280;49185;42.320;23.198;2023-02-20T12:54:39;95492.00;;;12.83;34.02
63097;BME280;49185;42.320;23.198;2023-02-20T12:57:28;95497.50;;;12.76;33.58
63097;BME280;49185;42.320;23.198;2023-02-20T13:02:36;95495.50;;;12.66;34.18
63097;BME280;49185;42.320;23.198;2023-02-20T13:05:06;95494.91;;;12.98;34.59
63097;BME280;49185;42.320;23.198;2023-02-20T13:07:39;95482.81;;;13.13;32.96
63097;BME280;49185;42.320;23.198;2023-02-20T13:10:23;95468.13;;;12.76;33.24
63097;BME280;49185;42.320;23.198;2023-02-20T13:12:50;95484.00;;;12.49;33.61
63097;BME280;49185;42.320;23.198;2023-02-20T13:16:18;95477.09;;;12.53;33.69
63097;BME280;49185;42.320;23.198;2023-02-20T13:18:38;95473.88;;;12.51;34.41
63097;BME280;49185;42.320;23.198;2023-02-20T13:21:13;95472.44;;;12.14;34.76
63097;BME280;49185;42.320;23.198;2023-02-20T13:23:39;95470.78;;;12.25;35.15
63097;BME280;49185;42.320;23.198;2023-02-20T13:28:51;95489.78;;;12.00;35.61
63097;BME280;49185;42.320;23.198;2023-02-20T13:52:40;95515.91;;;11.98;35.84
63097;BME280;49185;42.320;23.198;2023-02-20T13:57:47;95508.19;;;11.73;35.77
63097;BME280;49185;42.320;23.198;2023-02-20T14:02:41;95510.75;;;11.68;37.01
63097;BME280;49185;42.320;23.198;2023-02-20T14:05:21;95497.66;;;11.66;37.08
63097;BME280;49185;42.320;23.198;2023-02-20T14:07:47;95501.06;;;11.50;36.54
63097;BME280;49185;42.320;23.198;2023-02-20T14:10:29;95508.94;;;11.45;37.09
63097;BME280;49185;42.320;23.198;2023-02-20T14:15:43;95497.72;;;11.31;37.13
63097;BME280;49185;42.320;23.198;2023-02-20T14:18:19;95493.41;;;11.42;37.01
63097;BME280;49185;42.320;23.198;2023-02-20T14:20:45;95490.63;;;11.48;37.16
63097;BME280;49185;42.320;23.198;2023-02-20T14:23:25;95499.91;;;11.34;37.63
63097;BME280;49185;42.320;23.198;2023-02-20T14:26:09;95499.91;;;11.34;37.60
63097;BME280;49185;42.320;23.198;2023-02-20T14:28:47;95499.31;;;11.44;37.47
63097;BME280;49185;42.320;23.198;2023-02-20T14:31:32;95499.13;;;11.33;37.84
63097;BME280;49185;42.320;23.198;2023-02-20T14:34:06;95504.44;;;11.33;37.92
63097;BME280;49185;42.320;23.198;2023-02-20T14:39:25;95499.47;;;11.13;37.80
63097;BME280;49185;42.320;23.198;2023-02-20T14:42:00;95521.47;;;11.09;38.15
63097;BME280;49185;42.320;23.198;2023-02-20T14:44:29;95523.88;;;10.87;38.10
63097;BME280;49185;42.320;23.198;2023-02-20T14:47:12;95507.47;;;10.90;38.67
63097;BME280;49185;42.320;23.198;2023-02-20T14:49:38;95500.03;;;10.80;38.93
63097;BME280;49185;42.320;23.198;2023-02-20T14:54:40;95489.88;;;10.77;38.82
63097;BME280;49185;42.320;23.198;2023-02-20T14:57:14;95481.06;;;10.76;38.80
63097;BME280;49185;42.320;23.198;2023-02-20T14:59:40;95480.25;;;10.76;38.59
63097;BME280;49185;42.320;23.198;2023-02-20T15:02:23;95497.63;;;10.78;38.79
63097;BME280;49185;42.320;23.198;2023-02-20T15:04:54;95498.31;;;10.74;39.01
63097;BME280;49185;42.320;23.198;2023-02-20T15:07:22;95508.59;;;10.70;38.87
63097;BME280;49185;42.320;23.198;2023-02-20T15:09:52;95512.53;;;10.79;38.53
63097;BME280;49185;42.320;23.198;2023-02-20T15:12:27;95523.06;;;10.74;39.17
63097;BME280;49185;42.320;23.198;2023-02-20T15:15:02;95517.63;;;10.81;39.11
63097;BME280;49185;42.320;23.198;2023-02-20T15:17:30;95517.97;;;10.73;40.31
63097;BME280;49185;42.320;23.198;2023-02-20T15:19:57;95506.41;;;10.55;39.91
63097;BME280;49185;42.320;23.198;2023-02-20T15:22:28;95508.09;;;10.38;39.72
63097;BME280;49185;42.320;23.198;2023-02-20T15:27:39;95496.72;;;10.31;40.19
63097;BME280;49185;42.320;23.198;2023-02-20T15:30:16;95496.81;;;10.24;40.10
63097;BME280;49185;42.320;23.198;2023-02-20T15:32:42;95488.34;;;10.15;40.97
63097;BME280;49185;42.320;23.198;2023-02-20T15:35:17;95492.94;;;10.08;41.34
63097;BME280;49185;42.320;23.198;2023-02-20T15:37:44;95497.53;;;10.01;41.13
63097;BME280;49185;42.320;23.198;2023-02-20T15:40:19;95497.69;;;9.87;41.26